sensor_id;sensor_type;location;lat;lon;timestamp;temperature;humidity
10386;DHT22;34307;51.332;12.334;2023-04-03T04:25:46;-1.40;99.90
10386;DHT22;34307;51.332;12.334;2023-04-03T04:28:15;-1.50;99.90
10386;DHT22;34307;51.332;12.334;2023-04-03T04:30:43;-1.50;99.90
10386;DHT22;34307;51.332;12.334;2023-04-03T04:33:10;-1.40;99.90
10386;DHT22;34307;51.332;12.334;2023-04-03T04:35:42;-1.40;99.90
10386;DHT22;34307;51.332;12.334;2023-04-03T04:38:10;-1.40;99.90
10386;DHT22;34307;51.332;12.334;2023-04-03T04:40:38;-1.40;99.90
10386;DHT22;34307;51.332;12.334;2023-04-03T04:43:07;-1.40;99.90
10386;DHT22;34307;51.332;12.334;2023-04-03T04:45:35;-1.40;99.90
10386;DHT22;34307;51.332;12.334;2023-04-03T04:48:04;-1.40;99.90
10386;DHT22;34307;51.332;12.334;2023-04-03T04:50:32;-1.40;99.90
10386;DHT22;34307;51.332;12.334;2023-04-03T10:02:15;5.50;37.50
10386;DHT22;34307;51.332;12.334;2023-04-03T10:04:46;5.60;37.00
10386;DHT22;34307;51.332;12.334;2023-04-03T10:14:54;5.20;34.10
10386;DHT22;34307;51.332;12.334;2023-04-03T10:17:33;5.50;34.90
10386;DHT22;34307;51.332;12.334;2023-04-03T10:20:23;5.90;34.40
10386;DHT22;34307;51.332;12.334;2023-04-03T10:30:21;6.10;29.20
10386;DHT22;34307;51.332;12.334;2023-04-03T10:40:54;5.90;28.10
10386;DHT22;34307;51.332;12.334;2023-04-03T10:43:29;6.10;24.50
10386;DHT22;34307;51.332;12.334;2023-04-03T10:46:04;6.10;25.60
10386;DHT22;34307;51.332;12.334;2023-04-03T10:48:40;6.20;24.90
10386;DHT22;34307;51.332;12.334;2023-04-03T10:51:18;6.70;25.60
10386;DHT22;34307;51.332;12.334;2023-04-03T10:53:55;7.30;26.20
10386;DHT22;34307;51.332;12.334;2023-04-03T10:56:31;7.10;21.30
10386;DHT22;34307;51.332;12.334;2023-04-03T10:59:06;6.80;23.90
10386;DHT22;34307;51.332;12.334;2023-04-03T11:01:38;7.20;22.60
10386;DHT22;34307;51.332;12.334;2023-04-03T11:04:10;7.20;21.20
10386;DHT22;34307;51.332;12.334;2023-04-03T11:06:41;7.70;22.60
10386;DHT22;34307;51.332;12.334;2023-04-03T11:09:19;7.90;22.50
10386;DHT22;34307;51.332;12.334;2023-04-03T11:11:52;8.40;20.80
10386;DHT22;34307;51.332;12.334;2023-04-03T11:14:26;8.80;17.00
10386;DHT22;34307;51.332;12.334;2023-04-03T11:17:04;8.20;15.40
10386;DHT22;34307;51.332;12.334;2023-04-03T11:19:36;7.50;16.30
10386;DHT22;34307;51.332;12.334;2023-04-03T11:22:12;7.20;14.30
10386;DHT22;34307;51.332;12.334;2023-04-03T11:24:43;6.60;13.60
10386;DHT22;34307;51.332;12.334;2023-04-03T11:27:17;6.70;15.60
10386;DHT22;34307;51.332;12.334;2023-04-03T11:29:50;7.50;16.40
10386;DHT22;34307;51.332;12.334;2023-04-03T11:35:19;8.70;14.40
10386;DHT22;34307;51.332;12.334;2023-04-03T11:37:50;8.50;13.50
10386;DHT22;34307;51.332;12.334;2023-04-03T11:40:22;8.30;10.10
10386;DHT22;34307;51.332;12.334;2023-04-03T11:43:02;8.20;12.30
10386;DHT22;34307;51.332;12.334;2023-04-03T11:45:36;8.90;13.00
10386;DHT22;34307;51.332;12.334;2023-04-03T11:48:06;9.60;17.00
10386;DHT22;34307;51.332;12.334;2023-04-03T11:50:50;10.10;10.70
10386;DHT22;34307;51.332;12.334;2023-04-03T11:53:33;7.40;8.40
10386;DHT22;34307;51.332;12.334;2023-04-03T11:56:04;6.70;13.00
10386;DHT22;34307;51.332;12.334;2023-04-03T11:58:34;6.40;13.00
10386;DHT22;34307;51.332;12.334;2023-04-03T12:01:08;6.20;12.10
10386;DHT22;34307;51.332;12.334;2023-04-03T12:10:15;8.80;5.80
10386;DHT22;34307;51.332;12.334;2023-04-03T12:12:59;8.70;6.60
10386;DHT22;34307;51.332;12.334;2023-04-03T12:15:52;8.20;7.80
10386;DHT22;34307;51.332;12.334;2023-04-03T12:18:42;6.20;6.20
10386;DHT22;34307;51.332;12.334;2023-04-03T12:21:11;6.00;7.70
10386;DHT22;34307;51.332;12.334;2023-04-03T12:24:03;6.30;8.40
10386;DHT22;34307;51.332;12.334;2023-04-03T12:26:36;7.90;10.20
10386;DHT22;34307;51.332;12.334;2023-04-03T12:29:20;8.80;7.60
10386;DHT22;34307;51.332;12.334;2023-04-03T12:31:58;8.30;7.30
10386;DHT22;34307;51.332;12.334;2023-04-03T12:34:46;7.70;6.70
10386;DHT22;34307;51.332;12.334;2023-04-03T12:37:29;6.90;4.80
10386;DHT22;34307;51.332;12.334;2023-04-03T12:40:07;6.40;8.30
10386;DHT22;34307;51.332;12.334;2023-04-03T12:42:55;6.90;5.10
10386;DHT22;34307;51.332;12.334;2023-04-03T12:45:29;7.00;5.40
10386;DHT22;34307;51.332;12.334;2023-04-03T12:48:14;7.40;8.30
10386;DHT22;34307;51.332;12.334;2023-04-03T12:50:43;8.00;7.60
10386;DHT22;34307;51.332;12.334;2023-04-03T12:53:14;7.90;6.80
10386;DHT22;34307;51.332;12.334;2023-04-03T12:55:43;6.80;6.90
10386;DHT22;34307;51.332;12.334;2023-04-03T12:58:16;6.60;7.70
10386;DHT22;34307;51.332;12.334;2023-04-03T13:00:44;6.40;7.00
10386;DHT22;34307;51.332;12.334;2023-04-03T13:03:24;6.40;7.70
10386;DHT22;34307;51.332;12.334;2023-04-03T13:05:57;6.60;7.30
10386;DHT22;34307;51.332;12.334;2023-04-03T13:08:26;6.40;6.10
10386;DHT22;34307;51.332;12.334;2023-04-03T13:10:57;6.30;7.50
10386;DHT22;34307;51.332;12.334;2023-04-03T13:13:26;6.80;8.10
10386;DHT22;34307;51.332;12.334;2023-04-03T13:15:54;6.90;7.00
10386;DHT22;34307;51.332;12.334;2023-04-03T13:18:29;7.30;6.50
10386;DHT22;34307;51.332;12.334;2023-04-03T13:21:01;7.30;4.80
10386;DHT22;34307;51.332;12.334;2023-04-03T13:23:31;6.50;5.80
10386;DHT22;34307;51.332;12.334;2023-04-03T13:25:59;6.30;6.70
10386;DHT22;34307;51.332;12.334;2023-04-03T13:28:31;6.40;5.80
10386;DHT22;34307;51.332;12.334;2023-04-03T13:31:05;6.10;4.90
10386;DHT22;34307;51.332;12.334;2023-04-03T13:33:36;6.10;5.20
10386;DHT22;34307;51.332;12.334;2023-04-03T13:36:08;6.40;7.40
10386;DHT22;34307;51.332;12.334;2023-04-03T13:38:38;7.00;9.30
10386;DHT22;34307;51.332;12.334;2023-04-03T13:41:23;7.80;5.90
10386;DHT22;34307;51.332;12.334;2023-04-03T13:43:52;7.90;2.40
10386;DHT22;34307;51.332;12.334;2023-04-03T13:46:35;7.50;1.50
10386;DHT22;34307;51.332;12.334;2023-04-03T13:49:19;7.50;2.80
10386;DHT22;34307;51.332;12.334;2023-04-03T13:51:48;7.30;1.90
10386;DHT22;34307;51.332;12.334;2023-04-03T13:54:34;7.20;1.30
10386;DHT22;34307;51.332;12.334;2023-04-03T13:57:11;7.10;1.00
10386;DHT22;34307;51.332;12.334;2023-04-03T13:59:40;7.20;3.50
10386;DHT22;34307;51.332;12.334;2023-04-03T14:02:15;8.30;3.10
10386;DHT22;34307;51.332;12.334;2023-04-03T14:04:51;9.60;1.00
10386;DHT22;34307;51.332;12.334;2023-04-03T14:07:19;8.30;1.00
10386;DHT22;34307;51.332;12.334;2023-04-03T14:09:48;7.60;1.00
10386;DHT22;34307;51.332;12.334;2023-04-03T14:12:18;7.10;1.00
10386;DHT22;34307;51.332;12.334;2023-04-03T14:14:57;6.60;2.90
10386;DHT22;34307;51.332;12.334;2023-04-03T14:17:25;6.60;4.00
10386;DHT22;34307;51.332;12.334;2023-04-03T14:19:57;5.90;3.50
10386;DHT22;34307;51.332;12.334;2023-04-03T14:22:26;6.00;6.30
10386;DHT22;34307;51.332;12.334;2023-04-03T14:24:55;6.00;5.40
10386;DHT22;34307;51.332;12.334;2023-04-03T14:27:27;6.00;5.40
10386;DHT22;34307;51.332;12.334;2023-04-03T14:29:57;5.80;5.30
10386;DHT22;34307;51.332;12.334;2023-04-03T14:32:26;5.90;5.30
10386;DHT22;34307;51.332;12.334;2023-04-03T14:34:56;5.90;4.30
10386;DHT22;34307;51.332;12.334;2023-04-03T14:37:27;6.00;4.60
10386;DHT22;34307;51.332;12.334;2023-04-03T14:39:57;6.10;5.50
10386;DHT22;34307;51.332;12.334;2023-04-03T14:42:29;6.00;4.10
10386;DHT22;34307;51.332;12.334;2023-04-03T14:44:58;5.90;4.00
10386;DHT22;34307;51.332;12.334;2023-04-03T14:47:28;5.80;5.00
10386;DHT22;34307;51.332;12.334;2023-04-03T14:50:00;5.60;3.90
10386;DHT22;34307;51.332;12.334;2023-04-03T14:52:31;5.50;3.50
10386;DHT22;34307;51.332;12.334;2023-04-03T14:54:59;5.70;5.20
10386;DHT22;34307;51.332;12.334;2023-04-03T14:57:29;5.60;3.10
10386;DHT22;34307;51.332;12.334;2023-04-03T14:59:57;5.50;4.80
10386;DHT22;34307;51.332;12.334;2023-04-03T15:02:28;5.50;2.90
10386;DHT22;34307;51.332;12.334;2023-04-03T15:04:57;5.30;3.20
10386;DHT22;34307;51.332;12.334;2023-04-03T15:07:28;5.30;4.20
10386;DHT22;34307;51.332;12.334;2023-04-03T15:10:02;5.50;4.30
10386;DHT22;34307;51.332;12.334;2023-04-03T15:12:30;5.60;5.30
10386;DHT22;34307;51.332;12.334;2023-04-03T15:14:57;5.50;5.00
10386;DHT22;34307;51.332;12.334;2023-04-03T15:17:29;5.40;4.50
10386;DHT22;34307;51.332;12.334;2023-04-03T15:19:58;5.40;3.80
10386;DHT22;34307;51.332;12.334;2023-04-03T15:22:27;5.30;3.00
10386;DHT22;34307;51.332;12.334;2023-04-03T15:24:55;5.20;2.70
10386;DHT22;34307;51.332;12.334;2023-04-03T15:27:23;5.10;4.60
10386;DHT22;34307;51.332;12.334;2023-04-03T15:29:51;5.00;2.70
10386;DHT22;34307;51.332;12.334;2023-04-03T15:32:18;5.10;3.50
10386;DHT22;34307;51.332;12.334;2023-04-03T15:34:46;5.10;3.40
10386;DHT22;34307;51.332;12.334;2023-04-03T15:37:14;5.00;2.70
10386;DHT22;34307;51.332;12.334;2023-04-03T15:39:43;4.90;2.90
10386;DHT22;34307;51.332;12.334;2023-04-03T15:42:11;4.70;2.30
10386;DHT22;34307;51.332;12.334;2023-04-03T15:44:39;4.60;2.70
10386;DHT22;34307;51.332;12.334;2023-04-03T15:47:08;4.50;4.00
10386;DHT22;34307;51.332;12.334;2023-04-03T15:49:36;4.60;5.40
10386;DHT22;34307;51.332;12.334;2023-04-03T15:52:04;4.70;5.40
10386;DHT22;34307;51.332;12.334;2023-04-03T15:54:32;4.70;5.70
10386;DHT22;34307;51.332;12.334;2023-04-03T15:57:01;4.70;5.00
10386;DHT22;34307;51.332;12.334;2023-04-03T15:59:29;4.60;5.60
10386;DHT22;34307;51.332;12.334;2023-04-03T16:01:59;4.60;5.70
10386;DHT22;34307;51.332;12.334;2023-04-03T16:04:28;4.80;10.10
10386;DHT22;34307;51.332;12.334;2023-04-03T16:06:56;4.70;4.90
10386;DHT22;34307;51.332;12.334;2023-04-03T16:09:24;4.60;5.50
10386;DHT22;34307;51.332;12.334;2023-04-03T16:11:52;4.50;5.20
10386;DHT22;34307;51.332;12.334;2023-04-03T16:14:21;4.50;4.50
10386;DHT22;34307;51.332;12.334;2023-04-03T16:16:49;4.50;5.10
10386;DHT22;34307;51.332;12.334;2023-04-03T16:19:17;4.50;5.60
10386;DHT22;34307;51.332;12.334;2023-04-03T16:21:45;4.50;5.70
10386;DHT22;34307;51.332;12.334;2023-04-03T16:24:13;4.50;7.20
10386;DHT22;34307;51.332;12.334;2023-04-03T16:26:44;4.40;4.70
10386;DHT22;34307;51.332;12.334;2023-04-03T16:29:12;4.30;4.90
10386;DHT22;34307;51.332;12.334;2023-04-03T16:31:41;4.30;7.00
10386;DHT22;34307;51.332;12.334;2023-04-03T16:34:09;4.20;6.50
10386;DHT22;34307;51.332;12.334;2023-04-03T16:36:37;4.30;7.00
10386;DHT22;34307;51.332;12.334;2023-04-03T16:39:05;4.20;7.10
10386;DHT22;34307;51.332;12.334;2023-04-03T16:41:36;4.20;5.80
10386;DHT22;34307;51.332;12.334;2023-04-03T16:44:04;4.20;7.50
10386;DHT22;34307;51.332;12.334;2023-04-03T16:46:33;4.20;8.20
10386;DHT22;34307;51.332;12.334;2023-04-03T16:49:03;4.30;9.30
10386;DHT22;34307;51.332;12.334;2023-04-03T16:51:31;4.20;7.90
10386;DHT22;34307;51.332;12.334;2023-04-03T16:53:59;4.10;8.40
10386;DHT22;34307;51.332;12.334;2023-04-03T16:56:27;4.20;10.90
10386;DHT22;34307;51.332;12.334;2023-04-03T16:58:55;4.20;9.70
10386;DHT22;34307;51.332;12.334;2023-04-03T17:01:23;4.10;10.20
10386;DHT22;34307;51.332;12.334;2023-04-03T17:03:51;4.00;9.20
10386;DHT22;34307;51.332;12.334;2023-04-03T17:06:21;4.00;9.30
10386;DHT22;34307;51.332;12.334;2023-04-03T17:08:51;3.90;10.10
10386;DHT22;34307;51.332;12.334;2023-04-03T17:11:19;4.00;12.20
10386;DHT22;34307;51.332;12.334;2023-04-03T17:13:47;4.10;13.50
10386;DHT22;34307;51.332;12.334;2023-04-03T17:16:16;4.00;12.70
10386;DHT22;34307;51.332;12.334;2023-04-03T17:18:44;3.90;11.30
10386;DHT22;34307;51.332;12.334;2023-04-03T17:21:13;3.90;12.40
10386;DHT22;34307;51.332;12.334;2023-04-03T17:23:45;3.90;11.80
10386;DHT22;34307;51.332;12.334;2023-04-03T17:26:14;3.80;11.40
10386;DHT22;34307;51.332;12.334;2023-04-03T17:28:42;3.80;12.60
10386;DHT22;34307;51.332;12.334;2023-04-03T17:31:12;3.80;12.80
10386;DHT22;34307;51.332;12.334;2023-04-03T17:33:40;3.80;14.80
10386;DHT22;34307;51.332;12.334;2023-04-03T17:36:08;3.80;13.60
10386;DHT22;34307;51.332;12.334;2023-04-03T17:38:36;3.80;15.40
10386;DHT22;34307;51.332;12.334;2023-04-03T17:41:08;3.80;14.00
10386;DHT22;34307;51.332;12.334;2023-04-03T17:43:37;3.80;14.30
10386;DHT22;34307;51.332;12.334;2023-04-03T17:46:06;3.70;14.00
10386;DHT22;34307;51.332;12.334;2023-04-03T17:48:36;3.70;13.80
10386;DHT22;34307;51.332;12.334;2023-04-03T17:51:05;3.70;14.80
10386;DHT22;34307;51.332;12.334;2023-04-03T17:53:33;3.60;14.60
10386;DHT22;34307;51.332;12.334;2023-04-03T17:56:05;3.60;15.60
10386;DHT22;34307;51.332;12.334;2023-04-03T17:58:34;3.60;14.30
10386;DHT22;34307;51.332;12.334;2023-04-03T18:01:07;3.60;14.40
10386;DHT22;34307;51.332;12.334;2023-04-03T18:03:37;3.50;14.60
10386;DHT22;34307;51.332;12.334;2023-04-03T18:06:06;3.60;15.70
10386;DHT22;34307;51.332;12.334;2023-04-03T18:08:36;3.60;16.70
10386;DHT22;34307;51.332;12.334;2023-04-03T18:11:10;3.50;15.90
10386;DHT22;34307;51.332;12.334;2023-04-03T18:13:40;3.50;16.60
10386;DHT22;34307;51.332;12.334;2023-04-03T18:16:12;3.50;16.20
10386;DHT22;34307;51.332;12.334;2023-04-03T18:18:40;3.50;15.60
10386;DHT22;34307;51.332;12.334;2023-04-03T18:21:08;3.50;14.80
10386;DHT22;34307;51.332;12.334;2023-04-03T18:23:38;3.50;15.10
10386;DHT22;34307;51.332;12.334;2023-04-03T18:26:08;3.40;15.20
10386;DHT22;34307;51.332;12.334;2023-04-03T18:28:45;3.40;14.90
10386;DHT22;34307;51.332;12.334;2023-04-03T18:31:15;3.40;13.60
10386;DHT22;34307;51.332;12.334;2023-04-03T18:33:45;3.40;11.90
10386;DHT22;34307;51.332;12.334;2023-04-03T18:36:12;3.30;10.90
10386;DHT22;34307;51.332;12.334;2023-04-03T18:38:40;3.30;10.70
10386;DHT22;34307;51.332;12.334;2023-04-03T18:41:08;3.30;10.50
10386;DHT22;34307;51.332;12.334;2023-04-03T18:43:36;3.30;9.70
10386;DHT22;34307;51.332;12.334;2023-04-03T18:46:06;3.30;9.70
10386;DHT22;34307;51.332;12.334;2023-04-03T18:48:34;3.30;10.30
10386;DHT22;34307;51.332;12.334;2023-04-03T18:51:02;3.30;9.20
10386;DHT22;34307;51.332;12.334;2023-04-03T18:53:31;3.30;9.80
10386;DHT22;34307;51.332;12.334;2023-04-03T18:56:00;3.30;11.30
10386;DHT22;34307;51.332;12.334;2023-04-03T18:58:28;3.30;10.60
10386;DHT22;34307;51.332;12.334;2023-04-03T19:00:57;3.30;11.10
10386;DHT22;34307;51.332;12.334;2023-04-03T19:03:29;3.30;12.30
10386;DHT22;34307;51.332;12.334;2023-04-03T19:05:57;3.30;12.20
10386;DHT22;34307;51.332;12.334;2023-04-03T19:08:25;3.30;12.10
